Time;durP1;ratioP1;P1;durP2;ratioP2;P2;SDS_P1;SDS_P2;PMS_P1;PMS_P2;Temp;Humidity;BMP_temperature;BMP_pressure;BME280_temperature;BME280_humidity;BME280_pressure;Samples;Min_cycle;Max_cycle;Signal;HPM_P1;HPM_P2
2021/12/04 00:00:41;;;;;;;0.50;0.10;;;4.60;1.00;;;;;;5053811;28;20816;-69
2021/12/04 00:03:10;;;;;;;0.50;0.10;;;4.70;1.00;;;;;;5053868;28;20479;-69
2021/12/04 00:05:40;;;;;;;0.50;0.10;;;4.70;1.00;;;;;;5053294;28;20431;-69
2021/12/04 00:08:08;;;;;;;0.50;0.10;;;4.70;1.00;;;;;;5053473;28;20439;-69
2021/12/04 00:10:36;;;;;;;0.50;0.10;;;4.60;1.00;;;;;;5053051;28;20450;-70
2021/12/04 00:13:04;;;;;;;0.50;0.10;;;4.70;1.00;;;;;;5052959;28;20472;-69
2021/12/04 00:15:32;;;;;;;0.50;0.10;;;4.70;1.00;;;;;;5053482;28;20506;-69
2021/12/04 00:18:00;;;;;;;0.50;0.10;;;4.70;1.00;;;;;;5053840;28;20470;-68
2021/12/04 00:20:31;;;;;;;0.50;0.30;;;4.70;1.00;;;;;;5053725;28;20875;-69
2021/12/04 00:23:00;;;;;;;0.50;0.10;;;4.70;1.00;;;;;;5053306;28;20465;-69
2021/12/04 00:25:29;;;;;;;0.50;0.10;;;6.70;1.00;;;;;;5052684;28;20435;-68
2021/12/04 00:27:57;;;;;;;0.50;0.10;;;4.80;1.00;;;;;;5052907;28;20443;-69
2021/12/04 00:30:26;;;;;;;0.50;0.10;;;4.80;1.00;;;;;;5051952;28;20449;-69
2021/12/04 00:32:58;;;;;;;0.50;0.10;;;4.80;1.00;;;;;;5052420;28;20477;-68
2021/12/04 00:35:36;;;;;;;0.50;0.10;;;4.80;1.00;;;;;;5052177;28;20823;-68
2021/12/04 00:43:17;;;;;;;0.50;0.10;;;4.80;1.00;;;;;;5052235;28;20476;-69
2021/12/04 00:49:21;;;;;;;0.50;0.10;;;4.80;1.00;;;;;;5052712;28;20535;-68
2021/12/04 00:51:54;;;;;;;0.50;0.10;;;4.90;1.00;;;;;;5052816;28;20557;-70
2021/12/04 00:54:25;;;;;;;0.50;0.10;;;4.80;1.00;;;;;;5052484;28;20851;-68
2021/12/04 00:56:55;;;;;;;0.50;0.10;;;4.80;1.00;;;;;;5052002;28;20428;-68
2021/12/04 00:59:23;;;;;;;0.50;0.10;;;4.80;1.00;;;;;;5051461;28;20446;-68
2021/12/04 01:01:51;;;;;;;0.50;0.10;;;4.80;1.00;;;;;;5051742;28;20897;-69
2021/12/04 01:04:21;;;;;;;0.50;0.10;;;4.80;1.00;;;;;;5051718;28;20471;-68
2021/12/04 01:06:50;;;;;;;0.50;0.30;;;4.80;1.00;;;;;;5051770;28;20443;-68
2021/12/04 01:09:20;;;;;;;0.50;0.10;;;4.90;1.00;;;;;;5051514;28;20973;-68
2021/12/04 01:11:50;;;;;;;0.50;0.10;;;4.90;1.00;;;;;;5051894;28;20873;-68
2021/12/04 01:14:21;;;;;;;0.57;0.27;;;4.90;1.00;;;;;;5052121;28;20493;-68
2021/12/04 01:16:49;;;;;;;0.50;0.10;;;4.90;1.00;;;;;;5051741;28;20566;-69
2021/12/04 01:19:19;;;;;;;0.50;0.10;;;4.80;1.00;;;;;;5051494;28;20520;-69
2021/12/04 01:21:47;;;;;;;0.50;0.10;;;4.80;1.00;;;;;;5051436;28;20492;-69
2021/12/04 01:24:15;;;;;;;0.60;0.30;;;4.80;1.00;;;;;;5051617;28;20466;-69
2021/12/04 01:26:43;;;;;;;0.50;0.10;;;4.80;1.00;;;;;;5051322;28;20840;-68
2021/12/04 01:29:13;;;;;;;0.50;0.10;;;4.80;1.00;;;;;;5051269;28;20447;-69
2021/12/04 01:31:41;;;;;;;0.50;0.20;;;4.70;1.00;;;;;;5051372;28;20503;-68
2021/12/04 01:34:09;;;;;;;0.50;0.10;;;4.70;1.00;;;;;;5051024;28;20466;-68
2021/12/04 01:36:37;;;;;;;0.50;0.10;;;4.60;1.00;;;;;;5051601;28;20446;-68
2021/12/04 01:39:12;;;;;;;0.50;0.10;;;4.50;1.00;;;;;;5051614;28;20836;-69
2021/12/04 01:41:39;;;;;;;0.50;0.10;;;4.50;1.00;;;;;;5051433;28;20473;-69
2021/12/04 01:44:08;;;;;;;0.50;0.10;;;4.50;1.00;;;;;;5051318;28;20458;-69
2021/12/04 01:46:37;;;;;;;0.50;0.10;;;4.40;1.00;;;;;;5051150;28;20442;-68
2021/12/04 01:49:05;;;;;;;0.50;0.10;;;4.30;1.00;;;;;;5051492;28;20471;-68
2021/12/04 01:51:33;;;;;;;0.50;0.10;;;4.30;1.00;;;;;;5051425;28;20444;-68
2021/12/04 01:54:01;;;;;;;0.50;0.10;;;4.30;1.00;;;;;;5054669;28;20456;-68
2021/12/04 01:56:31;;;;;;;0.50;0.10;;;4.30;1.00;;;;;;5055495;28;20505;-69
2021/12/04 01:58:59;;;;;;;0.50;0.10;;;4.20;1.00;;;;;;5055709;28;20463;-70
2021/12/04 02:01:27;;;;;;;0.50;0.10;;;4.90;1.00;;;;;;5055623;28;20448;-69
2021/12/04 02:03:56;;;;;;;0.50;0.10;;;4.20;1.00;;;;;;5055461;28;20451;-70
2021/12/04 02:06:25;;;;;;;0.50;0.10;;;;;;;;;;5055197;28;20470;-69
2021/12/04 02:08:53;;;;;;;0.50;0.10;;;4.10;1.00;;;;;;5055273;28;20447;-69
2021/12/04 02:11:21;;;;;;;0.50;0.10;;;4.10;1.00;;;;;;5055090;28;20451;-69
2021/12/04 02:13:49;;;;;;;0.50;0.10;;;4.10;1.00;;;;;;5055246;28;21012;-69
2021/12/04 02:16:18;;;;;;;0.50;0.10;;;4.10;1.00;;;;;;5054731;28;20489;-68
2021/12/04 02:18:47;;;;;;;0.50;0.10;;;4.10;1.00;;;;;;5054919;28;20946;-69
2021/12/04 02:21:17;;;;;;;0.50;0.10;;;4.10;1.00;;;;;;5054796;28;20525;-68
2021/12/04 02:23:45;;;;;;;0.50;0.10;;;4.00;1.00;;;;;;5054667;28;20538;-68
2021/12/04 02:26:13;;;;;;;0.50;0.10;;;4.00;1.00;;;;;;5054786;28;20948;-68
2021/12/04 02:28:44;;;;;;;0.50;0.10;;;4.10;1.00;;;;;;5055056;28;20537;-68
2021/12/04 02:31:17;;;;;;;0.50;0.10;;;4.10;1.00;;;;;;5054767;28;20486;-68
2021/12/04 02:33:45;;;;;;;0.50;0.10;;;4.10;1.00;;;;;;5077884;22;20500;-72
2021/12/04 02:36:13;;;;;;;0.50;0.10;;;4.10;1.00;;;;;;5055087;28;20502;-71
2021/12/04 02:38:43;;;;;;;0.50;0.10;;;4.10;1.00;;;;;;5054242;28;20447;-70
2021/12/04 02:41:11;;;;;;;0.50;0.10;;;4.10;1.00;;;;;;5051540;28;20530;-71
2021/12/04 02:43:39;;;;;;;0.50;0.10;;;4.10;1.00;;;;;;5054438;28;20464;-71
2021/12/04 02:46:07;;;;;;;0.50;0.10;;;4.10;1.00;;;;;;5054460;28;20438;-71
2021/12/04 02:48:35;;;;;;;0.50;0.10;;;4.10;1.00;;;;;;5052876;28;20477;-70
2021/12/04 02:51:03;;;;;;;0.50;0.10;;;4.10;1.00;;;;;;5053887;28;20448;-71
2021/12/04 02:53:31;;;;;;;0.50;0.10;;;4.10;1.00;;;;;;5055314;28;20467;-70
2021/12/04 02:56:01;;;;;;;0.50;0.10;;;4.10;1.00;;;;;;5054375;28;20488;-71
2021/12/04 02:58:28;;;;;;;0.50;0.10;;;4.10;1.00;;;;;;5058675;28;20442;-71
2021/12/04 03:00:57;;;;;;;0.50;0.10;;;4.10;1.00;;;;;;5058016;28;20445;-70
2021/12/04 03:03:25;;;;;;;0.50;0.10;;;4.10;1.00;;;;;;5053869;28;20537;-71
2021/12/04 03:05:53;;;;;;;0.50;0.10;;;4.00;1.00;;;;;;5054201;28;20430;-71
2021/12/04 03:08:22;;;;;;;0.50;0.10;;;4.00;1.00;;;;;;5054421;28;20496;-71
2021/12/04 03:10:52;;;;;;;0.50;0.10;;;4.00;1.00;;;;;;5054000;28;20447;-71
2021/12/04 03:13:22;;;;;;;0.50;0.10;;;4.00;1.00;;;;;;5054409;28;20899;-71
2021/12/04 03:15:57;;;;;;;0.50;0.10;;;4.00;1.00;;;;;;5054967;28;20781;-70
2021/12/04 03:18:25;;;;;;;0.50;0.13;;;3.90;1.00;;;;;;5054012;28;20892;-71
2021/12/04 03:20:56;;;;;;;0.50;0.10;;;3.90;1.00;;;;;;5055023;28;20446;-71
2021/12/04 03:23:29;;;;;;;0.50;0.10;;;3.90;1.00;;;;;;5064442;28;20471;-71
2021/12/04 03:25:59;;;;;;;0.50;0.10;;;3.90;1.00;;;;;;5055952;28;20438;-71
2021/12/04 03:28:28;;;;;;;0.50;0.10;;;3.90;1.00;;;;;;5054202;28;20448;-71
2021/12/04 03:31:01;;;;;;;0.50;0.10;;;3.90;1.00;;;;;;5053550;28;20933;-71
2021/12/04 03:41:54;;;;;;;0.50;0.10;;;3.80;1.00;;;;;;5053446;28;20454;-72
2021/12/04 03:44:23;;;;;;;0.50;0.10;;;3.70;1.00;;;;;;5053791;28;20443;-70
2021/12/04 03:46:51;;;;;;;0.50;0.10;;;3.70;1.00;;;;;;5054010;28;20439;-70
2021/12/04 03:49:19;;;;;;;0.50;0.10;;;3.70;1.00;;;;;;5053390;28;20447;-71
2021/12/04 03:51:47;;;;;;;0.50;0.10;;;3.70;1.00;;;;;;5053637;28;20451;-71
2021/12/04 03:54:15;;;;;;;0.50;0.10;;;3.70;1.00;;;;;;5053652;28;20529;-71
2021/12/04 03:56:43;;;;;;;0.50;0.10;;;3.70;1.00;;;;;;5054923;28;20475;-71
2021/12/04 03:59:11;;;;;;;0.50;0.10;;;3.70;1.00;;;;;;5056730;28;20451;-72
2021/12/04 04:01:40;;;;;;;0.50;0.20;;;3.70;1.00;;;;;;5053100;28;20444;-71
2021/12/04 04:04:08;;;;;;;0.50;0.10;;;3.70;1.00;;;;;;5053248;28;20466;-70
2021/12/04 04:06:36;;;;;;;0.50;0.10;;;3.70;1.00;;;;;;5053711;28;20448;-71
2021/12/04 04:09:04;;;;;;;0.50;0.10;;;3.70;1.00;;;;;;5055426;28;20587;-71
2021/12/04 04:11:35;;;;;;;0.50;0.10;;;3.70;1.00;;;;;;5057287;28;20546;-70
2021/12/04 04:14:04;;;;;;;0.50;0.10;;;3.80;1.00;;;;;;5056185;28;20490;-71
2021/12/04 04:16:35;;;;;;;0.50;0.10;;;3.80;1.00;;;;;;5056556;28;20490;-70
2021/12/04 04:19:05;;;;;;;2.40;2.30;;;3.80;1.00;;;;;;5057123;28;20500;-71
2021/12/04 04:21:35;;;;;;;0.50;0.10;;;3.80;1.00;;;;;;5056937;28;20465;-70
2021/12/04 04:24:03;;;;;;;0.50;0.10;;;3.80;1.00;;;;;;5058173;28;20553;-71
2021/12/04 04:26:31;;;;;;;0.50;0.10;;;3.80;1.00;;;;;;5057346;28;20800;-71
2021/12/04 04:28:59;;;;;;;0.50;0.10;;;3.80;1.00;;;;;;5052332;28;20448;-70
2021/12/04 04:31:28;;;;;;;0.50;0.10;;;3.70;1.00;;;;;;5052217;28;20443;-71
2021/12/04 04:34:00;;;;;;;0.50;0.10;;;3.80;1.00;;;;;;5053050;28;20545;-70
2021/12/04 04:36:58;;;;;;;0.50;0.10;;;3.80;1.00;;;;;;5053395;28;20484;-71
2021/12/04 04:39:52;;;;;;;0.50;0.10;;;3.80;1.00;;;;;;5052693;28;20441;-71
2021/12/04 05:12:50;;;;;;;0.50;0.10;;;3.50;1.00;;;;;;5053039;28;20461;-71
2021/12/04 05:15:21;;;;;;;0.50;0.10;;;3.50;1.00;;;;;;5053101;28;20439;-71
2021/12/04 05:18:07;;;;;;;0.50;0.10;;;3.50;1.00;;;;;;5052780;28;21044;-71
2021/12/04 05:20:37;;;;;;;0.50;0.10;;;3.50;1.00;;;;;;5052709;28;20921;-71
2021/12/04 05:23:07;;;;;;;0.50;0.10;;;3.50;1.00;;;;;;5054320;28;20492;-71
2021/12/04 05:25:36;;;;;;;0.50;0.10;;;3.50;1.00;;;;;;5056667;28;20448;-70
2021/12/04 05:28:05;;;;;;;0.50;0.10;;;3.40;1.00;;;;;;5052553;28;20440;-71
2021/12/04 05:30:33;;;;;;;0.50;0.10;;;3.50;1.00;;;;;;5052193;28;20444;-71
2021/12/04 05:33:01;;;;;;;0.50;0.10;;;3.50;1.00;;;;;;5052340;28;20558;-71
2021/12/04 05:35:29;;;;;;;0.50;0.10;;;3.50;1.00;;;;;;5052225;28;20596;-70
2021/12/04 05:37:58;;;;;;;0.50;0.10;;;3.50;1.00;;;;;;5052224;28;20503;-71
2021/12/04 05:40:26;;;;;;;0.50;0.10;;;3.50;1.00;;;;;;5051784;28;20448;-71
2021/12/04 05:43:00;;;;;;;0.50;0.10;;;3.50;1.00;;;;;;5052245;28;20461;-71
2021/12/04 05:45:29;;;;;;;0.50;0.30;;;3.50;1.00;;;;;;5052255;28;20448;-71
2021/12/04 05:48:02;;;;;;;0.50;0.10;;;3.40;1.00;;;;;;5060421;28;20444;-71
2021/12/04 05:50:54;;;;;;;0.50;0.10;;;3.50;1.00;;;;;;5061707;28;20469;-70
2021/12/04 05:53:24;;;;;;;0.50;0.10;;;3.40;1.00;;;;;;5052270;28;20463;-71
2021/12/04 05:55:53;;;;;;;0.50;0.17;;;3.50;1.00;;;;;;5052143;28;20454;-71
2021/12/04 05:58:24;;;;;;;0.50;0.10;;;3.40;1.00;;;;;;5051855;28;20475;-70
2021/12/04 06:00:54;;;;;;;0.50;0.10;;;3.40;1.00;;;;;;5051700;28;20442;-71
2021/12/04 06:03:22;;;;;;;0.50;0.10;;;3.50;1.00;;;;;;5051906;28;20556;-71
2021/12/04 06:05:51;;;;;;;0.50;0.10;;;3.50;1.00;;;;;;5053045;28;20438;-70
2021/12/04 06:08:19;;;;;;;0.50;0.10;;;3.40;1.00;;;;;;5053602;28;20791;-71
2021/12/04 06:10:49;;;;;;;0.50;0.10;;;3.50;1.00;;;;;;5051662;28;20925;-72
2021/12/04 06:13:17;;;;;;;0.50;0.10;;;3.50;1.00;;;;;;5051470;28;20458;-70
2021/12/04 06:15:46;;;;;;;0.50;0.10;;;3.50;1.00;;;;;;5052034;28;20501;-71
2021/12/04 06:18:15;;;;;;;0.50;0.10;;;3.40;1.00;;;;;;5051924;28;20804;-71
2021/12/04 06:23:30;;;;;;;0.50;0.10;;;3.50;1.00;;;;;;5051427;28;20450;-71
2021/12/04 06:25:58;;;;;;;0.50;0.10;;;3.50;1.00;;;;;;5051213;28;20555;-70
2021/12/04 06:28:25;;;;;;;0.50;0.10;;;3.50;1.00;;;;;;5051966;28;20441;-72
2021/12/04 06:30:58;;;;;;;0.50;0.10;;;3.50;1.00;;;;;;5051910;28;20518;-71
2021/12/04 06:33:27;;;;;;;0.60;0.47;;;3.50;1.00;;;;;;5051707;28;20501;-70
2021/12/04 06:35:55;;;;;;;0.50;0.10;;;3.50;1.00;;;;;;5051875;28;20542;-71
2021/12/04 06:38:24;;;;;;;1.10;1.07;;;3.50;1.00;;;;;;5052077;28;20478;-71
2021/12/04 06:40:53;;;;;;;0.50;0.10;;;3.50;1.00;;;;;;5055198;28;20438;-70
2021/12/04 06:43:20;;;;;;;0.50;0.10;;;3.50;1.00;;;;;;5058361;28;20468;-71
2021/12/04 06:45:56;;;;;;;0.50;0.10;;;3.50;1.00;;;;;;5061381;28;20448;-72
2021/12/04 06:48:33;;;;;;;0.50;0.10;;;3.60;1.00;;;;;;5057336;28;20515;-72
2021/12/04 06:51:05;;;;;;;0.50;0.10;;;3.60;1.00;;;;;;5055235;28;20428;-71
2021/12/04 06:53:38;;;;;;;0.50;0.10;;;3.60;1.00;;;;;;5055410;28;20455;-71
2021/12/04 06:56:08;;;;;;;0.50;0.10;;;3.60;1.00;;;;;;5055163;28;20930;-71
2021/12/04 06:58:36;;;;;;;0.60;0.50;;;3.60;1.00;;;;;;5057906;28;20476;-72
2021/12/04 07:01:05;;;;;;;0.50;0.10;;;3.60;1.00;;;;;;5059103;28;20519;-71
2021/12/04 07:03:35;;;;;;;0.50;0.10;;;3.60;1.00;;;;;;5058813;28;20468;-71
2021/12/04 07:06:03;;;;;;;0.50;0.10;;;3.60;1.00;;;;;;5058753;28;20477;-72
2021/12/04 07:08:31;;;;;;;0.50;0.10;;;3.60;1.00;;;;;;5061632;28;20533;-71
2021/12/04 07:10:59;;;;;;;0.50;0.10;;;3.60;1.00;;;;;;5055050;28;20458;-71
2021/12/04 07:13:27;;;;;;;0.50;0.10;;;3.60;1.00;;;;;;5054021;28;20834;-70
2021/12/04 07:16:01;;;;;;;0.50;0.10;;;3.60;1.00;;;;;;5054140;28;20451;-71
2021/12/04 07:18:30;;;;;;;0.50;0.10;;;3.60;1.00;;;;;;5054554;28;20482;-70
2021/12/04 07:20:59;;;;;;;0.50;0.10;;;3.60;1.00;;;;;;5055223;28;20461;-71
2021/12/04 07:23:27;;;;;;;0.50;0.10;;;3.60;1.00;;;;;;5055899;28;20467;-71
2021/12/04 07:25:55;;;;;;;0.50;0.10;;;3.60;1.00;;;;;;5055179;28;20871;-71
2021/12/04 07:28:23;;;;;;;0.50;0.10;;;3.60;1.00;;;;;;5055459;28;20534;-72
2021/12/04 07:30:52;;;;;;;0.50;0.10;;;3.60;1.00;;;;;;5054411;28;20596;-72
2021/12/04 07:33:20;;;;;;;0.50;0.10;;;3.60;1.00;;;;;;5053760;28;21101;-70
2021/12/04 07:35:48;;;;;;;0.50;0.10;;;3.50;1.00;;;;;;5054588;28;20810;-70
2021/12/04 07:38:18;;;;;;;0.50;0.10;;;3.50;1.00;;;;;;5054262;28;20519;-70
2021/12/04 07:40:46;;;;;;;0.50;0.10;;;3.50;1.00;;;;;;5054119;28;20544;-72
2021/12/04 07:43:14;;;;;;;0.50;0.10;;;3.50;1.00;;;;;;5054307;28;20460;-72
2021/12/04 07:45:42;;;;;;;0.50;0.10;;;3.60;1.00;;;;;;5054711;28;20833;-72
2021/12/04 07:48:10;;;;;;;0.50;0.10;;;3.60;1.00;;;;;;5063912;28;20439;-72
2021/12/04 07:50:38;;;;;;;0.50;0.10;;;3.60;1.00;;;;;;5061627;28;20539;-71
2021/12/04 07:53:06;;;;;;;0.50;0.10;;;3.70;1.00;;;;;;5054661;28;20468;-71
2021/12/04 07:55:36;;;;;;;0.50;0.10;;;3.70;1.00;;;;;;5054030;28;20499;-73
2021/12/04 07:58:04;;;;;;;0.50;0.10;;;3.60;1.00;;;;;;5054164;28;20483;-72
2021/12/04 08:00:32;;;;;;;0.50;0.10;;;3.70;1.00;;;;;;5053626;28;20841;-71
2021/12/04 08:03:01;;;;;;;0.50;0.10;;;3.70;1.00;;;;;;5054542;28;20463;-72
2021/12/04 08:05:29;;;;;;;0.50;0.10;;;3.70;1.00;;;;;;5053731;28;20790;-71
2021/12/04 08:07:57;;;;;;;0.50;0.10;;;3.70;1.00;;;;;;5054060;28;20445;-72
2021/12/04 08:10:25;;;;;;;0.50;0.10;;;3.70;1.00;;;;;;5056042;28;20456;-72
2021/12/04 08:12:55;;;;;;;0.50;0.10;;;3.80;1.00;;;;;;5054449;28;20531;-71
2021/12/04 08:15:23;;;;;;;0.50;0.10;;;3.80;1.00;;;;;;5053521;28;20486;-72
2021/12/04 08:17:51;;;;;;;0.50;0.10;;;3.90;1.00;;;;;;5053478;28;20439;-72
2021/12/04 08:20:19;;;;;;;0.50;0.10;;;3.80;1.00;;;;;;5056316;28;20438;-71
2021/12/04 08:22:47;;;;;;;0.50;0.10;;;3.80;1.00;;;;;;5056804;28;20467;-71
2021/12/04 08:25:18;;;;;;;0.50;0.10;;;3.80;1.00;;;;;;5057455;28;20440;-71
2021/12/04 08:27:47;;;;;;;0.50;0.10;;;3.90;1.00;;;;;;5053423;28;20975;-71
2021/12/04 08:30:20;;;;;;;0.50;0.10;;;3.80;1.00;;;;;;5053181;28;20451;-71
2021/12/04 08:32:49;;;;;;;0.50;0.10;;;3.90;1.00;;;;;;5076816;22;20485;-69
2021/12/04 08:35:18;;;;;;;0.50;0.10;;;3.90;1.00;;;;;;5041288;28;20522;-67
2021/12/04 08:37:47;;;;;;;0.50;0.10;;;3.90;1.00;;;;;;5036322;28;20441;-67
2021/12/04 08:40:18;;;;;;;0.50;0.10;;;3.90;1.00;;;;;;5033045;28;20829;-68
2021/12/04 08:42:47;;;;;;;0.50;0.10;;;3.80;1.00;;;;;;5032735;28;20547;-69
2021/12/04 08:45:18;;;;;;;0.50;0.10;;;3.80;1.00;;;;;;5032828;28;20453;-67
2021/12/04 08:47:46;;;;;;;0.50;0.10;;;3.80;1.00;;;;;;5032789;28;20452;-66
2021/12/04 08:50:17;;;;;;;0.50;0.10;;;3.80;1.00;;;;;;5032569;28;20499;-68
2021/12/04 08:52:46;;;;;;;0.50;0.10;;;3.90;1.00;;;;;;5032450;28;20468;-67
2021/12/04 08:55:14;;;;;;;0.50;0.10;;;3.90;1.00;;;;;;5032514;28;20541;-67
2021/12/04 08:57:42;;;;;;;0.50;0.10;;;3.90;1.00;;;;;;5032718;28;20448;-68
2021/12/04 09:00:13;;;;;;;0.50;0.10;;;3.90;1.00;;;;;;5032094;28;20477;-68
2021/12/04 09:02:44;;;;;;;0.50;0.10;;;4.00;1.00;;;;;;5032132;28;20926;-68
2021/12/04 09:05:13;;;;;;;0.50;0.10;;;4.00;1.00;;;;;;5033106;28;20441;-67
2021/12/04 09:07:41;;;;;;;0.50;0.10;;;4.00;1.00;;;;;;5032360;28;20432;-68
2021/12/04 09:10:10;;;;;;;0.50;0.10;;;4.10;1.00;;;;;;5031969;28;20811;-69
2021/12/04 09:12:39;;;;;;;0.50;0.10;;;4.10;1.00;;;;;;5030028;28;20463;-67
2021/12/04 09:15:11;;;;;;;0.50;0.10;;;4.20;1.00;;;;;;5031484;28;20449;-69
2021/12/04 09:17:39;;;;;;;0.50;0.10;;;4.20;1.00;;;;;;5032454;28;20534;-68
2021/12/04 09:20:11;;;;;;;0.50;0.10;;;4.20;1.00;;;;;;5032612;28;20493;-67
2021/12/04 09:22:39;;;;;;;0.50;0.10;;;4.20;1.00;;;;;;5033941;28;20810;-68
2021/12/04 09:25:13;;;;;;;0.50;0.10;;;4.20;1.00;;;;;;5033586;28;20447;-68
2021/12/04 09:27:55;;;;;;;0.50;0.30;;;4.30;1.00;;;;;;5034236;28;20439;-68
2021/12/04 09:30:46;;;;;;;0.50;0.10;;;4.30;1.00;;;;;;5034597;28;20451;-68
2021/12/04 10:01:16;;;;;;;0.50;0.10;;;4.60;1.00;;;;;;5032595;28;21011;-69
2021/12/04 10:18:15;;;;;;;0.50;0.10;;;4.70;1.00;;;;;;5036089;28;20449;-69
2021/12/04 10:20:58;;;;;;;0.50;0.10;;;4.70;1.00;;;;;;5034766;28;20515;-68
2021/12/04 10:34:44;;;;;;;0.50;0.10;;;4.70;1.00;;;;;;4988013;28;20951;-68
2021/12/04 10:37:17;;;;;;;0.50;0.10;;;4.70;1.00;;;;;;5034843;28;20541;-68
2021/12/04 10:39:49;;;;;;;0.50;0.10;;;4.70;1.00;;;;;;5034966;28;20569;-69
2021/12/04 10:42:22;;;;;;;0.50;0.10;;;;;;;;;;5034894;28;20908;-69
2021/12/04 10:44:53;;;;;;;0.50;0.10;;;4.70;1.00;;;;;;5035087;28;20443;-69
2021/12/04 10:47:24;;;;;;;0.50;0.10;;;4.80;1.00;;;;;;5035552;28;20474;-69
2021/12/04 10:50:05;;;;;;;0.50;0.10;;;4.80;1.00;;;;;;5034883;28;20440;-69
2021/12/04 10:52:46;;;;;;;0.50;0.10;;;4.90;1.00;;;;;;5034458;28;20446;-69
2021/12/04 10:55:20;;;;;;;0.50;0.10;;;4.80;1.00;;;;;;5034467;28;20446;-68
2021/12/04 11:00:54;;;;;;;0.50;0.10;;;4.90;1.00;;;;;;5034186;28;20503;-69
2021/12/04 11:03:47;;;;;;;0.50;0.10;;;4.90;1.00;;;;;;5034912;28;20476;-69
2021/12/04 11:21:00;;;;;;;0.50;0.10;;;5.10;1.00;;;;;;5034136;28;20994;-69
2021/12/04 11:26:43;;;;;;;0.50;0.10;;;5.10;1.00;;;;;;5034453;28;20795;-67
2021/12/04 11:40:33;;;;;;;0.50;0.10;;;5.30;1.00;;;;;;5034109;28;20488;-68
2021/12/04 11:43:04;;;;;;;0.50;0.10;;;5.30;1.00;;;;;;5034363;28;20459;-68
2021/12/04 11:45:44;;;;;;;0.50;0.10;;;5.30;1.00;;;;;;5034884;28;20556;-68
2021/12/04 11:48:14;;;;;;;0.50;0.10;;;5.30;1.00;;;;;;5034636;28;20446;-68
2021/12/04 11:50:51;;;;;;;1.13;1.00;;;5.30;1.00;;;;;;5033850;28;20476;-69
2021/12/04 11:53:20;;;;;;;0.50;0.10;;;5.20;1.00;;;;;;5033761;28;20552;-67
2021/12/04 11:55:50;;;;;;;0.50;0.10;;;5.30;1.00;;;;;;5034524;28;20487;-69
2021/12/04 11:58:24;;;;;;;0.50;0.10;;;5.20;1.00;;;;;;5034894;28;20446;-68
2021/12/04 12:00:56;;;;;;;0.50;0.10;;;5.20;1.00;;;;;;5033349;28;20480;-68
2021/12/04 12:03:28;;;;;;;0.50;0.10;;;5.30;1.00;;;;;;5033512;28;20460;-68
2021/12/04 12:05:58;;;;;;;0.50;0.10;;;5.30;1.00;;;;;;5033945;28;21009;-68
2021/12/04 12:08:30;;;;;;;0.50;0.10;;;5.30;1.00;;;;;;5033973;28;20452;-68
2021/12/04 12:11:03;;;;;;;0.50;0.10;;;5.30;1.00;;;;;;5033369;28;20492;-68
2021/12/04 12:13:35;;;;;;;0.50;0.10;;;5.30;1.00;;;;;;5033905;28;20471;-68
2021/12/04 12:16:08;;;;;;;0.50;0.10;;;5.30;1.00;;;;;;5033392;28;20925;-68
2021/12/04 12:18:52;;;;;;;0.50;0.10;;;5.30;1.00;;;;;;5033860;28;20468;-68
2021/12/04 12:21:24;;;;;;;0.50;0.10;;;5.30;1.00;;;;;;5032928;28;20494;-67
2021/12/04 12:27:16;;;;;;;0.50;0.10;;;5.30;1.00;;;;;;4972018;28;20464;-68
2021/12/04 12:38:17;;;;;;;0.50;0.10;;;5.20;1.00;;;;;;5032656;28;20958;-69
2021/12/04 12:40:58;;;;;;;0.50;0.10;;;5.30;1.00;;;;;;5032251;28;20475;-69
2021/12/04 12:43:39;;;;;;;0.50;0.10;;;5.20;1.00;;;;;;5032407;28;20467;-68
2021/12/04 12:46:08;;;;;;;0.50;0.10;;;5.20;1.00;;;;;;5032925;28;20458;-69
2021/12/04 12:48:45;;;;;;;0.50;0.10;;;5.30;1.00;;;;;;5032792;28;20534;-68
2021/12/04 12:51:16;;;;;;;0.50;0.10;;;5.30;1.00;;;;;;5032804;28;20440;-68
2021/12/04 12:53:47;;;;;;;0.50;0.10;;;5.40;1.00;;;;;;5032670;28;20476;-69
2021/12/04 12:56:16;;;;;;;0.50;0.10;;;5.40;1.00;;;;;;5033068;28;20448;-69
2021/12/04 12:58:50;;;;;;;0.50;0.10;;;5.40;1.00;;;;;;5032677;28;20554;-70
2021/12/04 13:12:48;;;;;;;0.50;0.10;;;5.50;1.00;;;;;;5031890;28;20468;-69
2021/12/04 13:15:29;;;;;;;0.50;0.10;;;5.50;1.00;;;;;;5032006;28;20969;-69
2021/12/04 13:18:08;;;;;;;0.50;0.10;;;5.50;1.00;;;;;;5032310;28;20531;-69
2021/12/04 13:20:36;;;;;;;0.50;0.10;;;5.50;1.00;;;;;;5031577;28;20492;-68
2021/12/04 13:23:11;;;;;;;0.50;0.10;;;5.50;1.00;;;;;;5032986;28;20482;-68
2021/12/04 13:25:48;;;;;;;0.50;0.10;;;5.60;1.00;;;;;;5032241;28;20454;-68
2021/12/04 13:30:46;;;;;;;0.50;0.10;;;5.60;1.00;;;;;;5031827;28;20978;-68
2021/12/04 13:33:14;;;;;;;0.50;0.10;;;5.60;1.00;;;;;;5032512;28;20486;-68
2021/12/04 13:35:45;;;;;;;0.50;0.10;;;5.70;1.00;;;;;;5032246;28;20532;-69
2021/12/04 13:38:15;;;;;;;0.50;0.10;;;5.70;1.00;;;;;;5032613;28;20451;-68
2021/12/04 13:40:48;;;;;;;0.50;0.10;;;5.70;1.00;;;;;;5031817;28;20566;-69
2021/12/04 13:43:17;;;;;;;0.50;0.10;;;5.60;1.00;;;;;;5032635;28;20471;-69
2021/12/04 13:45:45;;;;;;;0.70;0.50;;;5.60;1.00;;;;;;5032395;28;20452;-68
2021/12/04 13:48:14;;;;;;;0.50;0.10;;;5.60;1.00;;;;;;5034619;28;20452;-69
2021/12/04 13:50:47;;;;;;;0.50;0.10;;;5.60;1.00;;;;;;5036134;28;20436;-67
2021/12/04 13:53:21;;;;;;;0.50;0.10;;;5.50;1.00;;;;;;5036549;28;20465;-68
2021/12/04 13:55:53;;;;;;;0.50;0.10;;;5.50;1.00;;;;;;5036095;28;20458;-68
2021/12/04 13:58:21;;;;;;;0.60;0.10;;;5.50;1.00;;;;;;5036529;28;20496;-68
2021/12/04 14:00:50;;;;;;;1.27;1.17;;;5.50;1.00;;;;;;5036502;28;20575;-69
2021/12/04 14:03:23;;;;;;;0.50;0.20;;;5.50;1.00;;;;;;5036160;28;20457;-67
2021/12/04 14:05:51;;;;;;;0.50;0.10;;;5.40;1.00;;;;;;5036029;28;20855;-69
2021/12/04 14:08:21;;;;;;;0.50;0.10;;;5.40;1.00;;;;;;5036523;28;20476;-69
2021/12/04 14:10:50;;;;;;;0.50;0.13;;;5.40;1.00;;;;;;5036510;28;20470;-68
2021/12/04 14:13:25;;;;;;;0.50;0.20;;;5.40;1.00;;;;;;5037126;28;20986;-69
2021/12/04 14:15:55;;;;;;;0.50;0.10;;;5.40;1.00;;;;;;5036761;28;20436;-68
2021/12/04 14:18:28;;;;;;;0.50;0.10;;;5.30;1.00;;;;;;5036393;28;20452;-69
2021/12/04 14:21:00;;;;;;;0.50;0.10;;;5.30;1.00;;;;;;5035964;28;20535;-69
2021/12/04 14:23:33;;;;;;;0.50;0.10;;;5.30;1.00;;;;;;5035821;28;20493;-69
2021/12/04 14:26:03;;;;;;;0.50;0.10;;;5.30;1.00;;;;;;5035441;28;20623;-67
2021/12/04 14:28:35;;;;;;;1.10;0.47;;;5.20;1.00;;;;;;5035170;28;20448;-67
2021/12/04 14:31:03;;;;;;;0.50;0.10;;;5.20;1.00;;;;;;5035516;28;20505;-67
2021/12/04 14:33:31;;;;;;;0.50;0.10;;;5.10;1.00;;;;;;5072718;22;20547;-72
2021/12/04 14:35:59;;;;;;;0.50;0.10;;;5.10;1.00;;;;;;5075880;28;20442;-72
2021/12/04 14:38:30;;;;;;;0.50;0.10;;;5.00;1.00;;;;;;5075045;28;20496;-73
2021/12/04 14:41:00;;;;;;;0.50;0.10;;;4.90;1.00;;;;;;5075210;28;20490;-73
2021/12/04 14:43:32;;;;;;;0.50;0.10;;;4.90;1.00;;;;;;5082125;28;20474;-73
2021/12/04 14:46:01;;;;;;;0.50;0.10;;;4.90;1.00;;;;;;5081154;28;20456;-72
2021/12/04 14:48:33;;;;;;;0.50;0.10;;;4.90;1.00;;;;;;5080027;28;20510;-74
2021/12/04 14:51:05;;;;;;;0.50;0.10;;;5.00;1.00;;;;;;5081640;28;20434;-73
2021/12/04 14:53:43;;;;;;;0.50;0.30;;;5.00;1.00;;;;;;5082273;28;21044;-71
2021/12/04 14:56:12;;;;;;;1.90;1.80;;;5.10;1.00;;;;;;5074492;28;20438;-72
2021/12/04 14:58:41;;;;;;;0.50;0.10;;;5.10;1.00;;;;;;5074387;28;20490;-72
2021/12/04 15:01:12;;;;;;;0.50;0.10;;;5.10;1.00;;;;;;5074361;28;20488;-73
2021/12/04 15:03:44;;;;;;;0.50;0.10;;;5.10;1.00;;;;;;5074689;28;20642;-71
2021/12/04 15:06:14;;;;;;;0.50;0.10;;;5.10;1.00;;;;;;5074166;28;20446;-71
2021/12/04 15:08:46;;;;;;;0.50;0.10;;;5.10;1.00;;;;;;5074113;28;20434;-71
2021/12/04 15:11:16;;;;;;;0.50;0.10;;;5.10;1.00;;;;;;5074621;28;20557;-72
2021/12/04 15:13:51;;;;;;;0.50;0.10;;;5.10;1.00;;;;;;5074208;28;20553;-71
2021/12/04 15:16:29;;;;;;;0.83;0.83;;;5.20;1.00;;;;;;5074385;28;20443;-73
2021/12/04 15:19:08;;;;;;;0.50;0.10;;;5.20;1.00;;;;;;5074204;28;21144;-71
2021/12/04 15:21:40;;;;;;;0.50;0.10;;;5.20;1.00;;;;;;5074795;28;20482;-73
2021/12/04 15:24:13;;;;;;;0.50;0.10;;;5.30;1.00;;;;;;5074586;28;20990;-73
2021/12/04 15:26:42;;;;;;;0.50;0.10;;;5.20;1.00;;;;;;5074607;28;20448;-71
2021/12/04 15:29:17;;;;;;;0.50;0.10;;;5.20;1.00;;;;;;5074003;28;20449;-72
2021/12/04 15:31:45;;;;;;;0.50;0.10;;;5.20;1.00;;;;;;5074373;28;20536;-70
2021/12/04 15:34:13;;;;;;;0.50;0.10;;;5.30;1.00;;;;;;5074169;28;20506;-71
2021/12/04 15:36:45;;;;;;;0.50;0.10;;;5.20;1.00;;;;;;5075987;28;20547;-72
2021/12/04 15:39:37;;;;;;;0.50;0.10;;;5.30;1.00;;;;;;5075198;28;20820;-70
2021/12/04 15:42:27;;;;;;;0.50;0.10;;;5.30;1.00;;;;;;5074132;28;20482;-73
2021/12/04 15:45:08;;;;;;;0.50;0.30;;;5.30;1.00;;;;;;5075011;28;20541;-70
2021/12/04 15:47:42;;;;;;;0.50;0.10;;;5.30;1.00;;;;;;5073902;28;20439;-72
2021/12/04 15:53:10;;;;;;;0.50;0.10;;;5.30;1.00;;;;;;5073453;28;20454;-73
2021/12/04 15:55:41;;;;;;;0.50;0.10;;;5.30;1.00;;;;;;5073985;28;20466;-71
2021/12/04 15:58:12;;;;;;;0.50;0.10;;;5.30;1.00;;;;;;5073951;28;20442;-71
2021/12/04 16:00:42;;;;;;;0.50;0.20;;;5.30;1.00;;;;;;5072917;28;20439;-73
2021/12/04 16:03:14;;;;;;;0.50;0.10;;;5.30;1.00;;;;;;5073395;28;20564;-72
2021/12/04 16:05:47;;;;;;;0.50;0.10;;;5.30;1.00;;;;;;5073037;28;20446;-73
2021/12/04 16:08:17;;;;;;;0.50;0.10;;;5.30;1.00;;;;;;5073284;28;20445;-71
2021/12/04 16:11:09;;;;;;;0.50;0.10;;;5.30;1.00;;;;;;5075582;28;20929;-73